createdAt,value
2019-05-13T00:03:14.051Z,74.42
2019-05-13T00:08:13.947Z,72.60
2019-05-13T00:13:14.805Z,73.68
2019-05-13T00:18:14.342Z,75.77
2019-05-13T00:23:14.485Z,75.65
2019-05-13T00:28:14.481Z,74.96
2019-05-13T00:33:13.931Z,77.90
2019-05-13T00:38:14.384Z,77.44
2019-05-13T00:43:14.343Z,77.05
2019-05-13T00:48:14.083Z,78.74
2019-05-13T00:53:13.340Z,78.75
2019-05-13T00:58:13.284Z,79.23
2019-05-13T01:03:11.049Z,78.39
2019-05-13T01:08:10.239Z,79.64
2019-05-13T01:13:09.097Z,80.04
2019-05-13T01:18:09.058Z,79.89
2019-05-13T01:23:09.093Z,79.91
2019-05-13T01:28:08.094Z,81.41
2019-05-13T01:33:07.135Z,80.10
2019-05-13T01:38:08.266Z,82.07
2019-05-13T01:43:09.107Z,82.71
2019-05-13T01:48:08.248Z,82.22
2019-05-13T01:53:08.312Z,80.02
2019-05-13T01:58:08.096Z,82.96
2019-05-13T02:03:08.109Z,83.78
2019-05-13T02:08:08.056Z,83.12
2019-05-13T02:13:07.213Z,80.88
2019-05-13T02:18:07.064Z,82.03
2019-05-13T02:23:06.096Z,82.02
2019-05-13T02:28:09.308Z,83.13
2019-05-13T02:33:06.051Z,83.02
2019-05-13T02:38:19.807Z,83.45
2019-05-13T02:43:05.077Z,82.29
2019-05-13T02:48:04.093Z,80.64
2019-05-13T02:53:03.096Z,84.80
2019-05-13T02:58:03.514Z,86.39
2019-05-13T03:03:03.251Z,84.70
2019-05-13T03:08:03.556Z,85.99
2019-05-13T03:13:03.580Z,87.14
2019-05-13T03:18:03.526Z,85.43
2019-05-13T03:23:03.195Z,84.79
2019-05-13T03:28:03.175Z,84.21
2019-05-13T03:33:10.325Z,83.11
2019-05-13T03:38:03.285Z,84.05
2019-05-13T03:43:02.693Z,86.04
2019-05-13T03:48:03.667Z,85.33
2019-05-13T03:53:02.937Z,85.62
2019-05-13T03:58:02.912Z,86.52
2019-05-13T04:03:02.920Z,87.52
2019-05-13T04:08:03.173Z,88.00
2019-05-13T04:13:03.839Z,87.17
2019-05-13T04:18:02.821Z,86.75
2019-05-13T04:23:02.970Z,86.57
2019-05-13T04:28:03.170Z,87.69
2019-05-13T04:33:02.393Z,88.20
2019-05-13T04:38:03.383Z,88.50
2019-05-13T04:43:02.912Z,88.56
2019-05-13T04:48:03.232Z,88.71
2019-05-13T04:53:03.219Z,88.61
2019-05-13T04:58:03.417Z,88.32
2019-05-13T05:03:03.257Z,88.95
2019-05-13T05:08:03.150Z,89.22
2019-05-13T05:12:59.150Z,89.08
2019-05-13T05:17:58.222Z,87.66
2019-05-13T05:22:58.177Z,86.84
2019-05-13T05:27:58.509Z,85.24
2019-05-13T05:32:58.168Z,84.84
2019-05-13T05:38:01.441Z,83.97
2019-05-13T05:42:58.651Z,84.17
2019-05-13T05:48:01.463Z,81.91
2019-05-13T05:53:01.720Z,82.28
2019-05-13T05:57:58.184Z,81.30
2019-05-13T06:02:58.182Z,81.12
2019-05-13T06:07:58.396Z,79.84
2019-05-13T06:12:57.203Z,78.75
2019-05-13T06:17:56.253Z,78.95
2019-05-13T06:22:56.157Z,77.25
2019-05-13T06:27:56.283Z,77.24
2019-05-13T06:32:56.180Z,74.48
2019-05-13T06:37:56.661Z,74.82
2019-05-13T06:42:55.210Z,74.29
2019-05-13T06:47:56.185Z,74.35
2019-05-13T06:52:55.231Z,73.73
2019-05-13T06:57:54.625Z,72.46
2019-05-13T07:02:54.384Z,73.03
2019-05-13T07:07:53.226Z,73.61
2019-05-13T07:12:52.305Z,72.03
2019-05-13T07:17:52.030Z,70.62
2019-05-13T07:22:53.197Z,68.51
2019-05-13T07:27:51.606Z,68.67
2019-05-13T07:32:52.388Z,68.32
2019-05-13T07:37:51.738Z,68.09
2019-05-13T07:42:49.645Z,66.67
2019-05-13T07:47:48.621Z,67.92
2019-05-13T07:52:51.527Z,67.07
2019-05-13T07:57:48.190Z,62.27
2019-05-13T08:02:49.238Z,64.36
2019-05-13T08:07:51.374Z,67.19
2019-05-13T08:12:48.043Z,63.72
2019-05-13T08:17:48.926Z,64.28
2019-05-13T08:22:47.918Z,61.47
2019-05-13T08:27:47.946Z,62.09
2019-05-13T08:32:48.107Z,58.23
2019-05-13T08:37:46.945Z,57.45
2019-05-13T08:42:48.067Z,56.14
2019-05-13T08:47:51.126Z,56.25
2019-05-13T08:52:51.112Z,58.04
2019-05-13T08:57:47.928Z,58.18
2019-05-13T09:02:47.945Z,56.98
2019-05-13T09:07:47.946Z,54.04
2019-05-13T09:12:46.984Z,53.30
2019-05-13T09:17:46.243Z,55.26
2019-05-13T09:22:44.933Z,53.02
2019-05-13T09:27:44.130Z,55.15
2019-05-13T09:32:43.945Z,51.79
2019-05-13T09:37:43.060Z,48.99
2019-05-13T09:42:50.947Z,51.34
2019-05-13T09:47:42.414Z,47.37
2019-05-13T09:52:42.907Z,51.14
2019-05-13T09:57:41.628Z,46.93
2019-05-13T10:02:42.601Z,51.04
2019-05-13T10:07:42.480Z,44.60
2019-05-13T10:12:42.527Z,46.15
2019-05-13T10:17:42.808Z,44.28
2019-05-13T10:22:41.718Z,46.97
2019-05-13T10:27:41.889Z,45.87
2019-05-13T10:32:42.505Z,46.09
2019-05-13T10:37:41.745Z,48.18
2019-05-13T10:42:43.311Z,47.94
2019-05-13T10:47:42.312Z,44.48
2019-05-13T10:52:42.542Z,46.50
2019-05-13T10:57:42.341Z,46.16
2019-05-13T11:02:39.437Z,46.95
2019-05-13T11:07:39.002Z,43.00
2019-05-13T11:12:41.723Z,47.79
2019-05-13T11:17:37.949Z,43.36
2019-05-13T11:22:37.965Z,40.08
2019-05-13T11:27:37.997Z,42.62
2019-05-13T11:32:38.118Z,38.88
2019-05-13T11:37:37.996Z,37.80
2019-05-13T11:42:38.141Z,39.60
2019-05-13T11:47:38.036Z,35.81
2019-05-13T11:52:37.950Z,35.85
2019-05-13T11:57:38.141Z,41.52
2019-05-13T12:02:36.933Z,36.44
2019-05-13T12:07:36.345Z,36.13
2019-05-13T12:12:36.017Z,42.37
2019-05-13T12:17:35.398Z,35.34
2019-05-13T12:22:34.976Z,32.72
2019-05-13T12:27:34.918Z,33.56
2019-05-13T12:32:36.159Z,38.11
2019-05-13T12:37:35.555Z,39.18
2019-05-13T12:42:34.014Z,38.12
2019-05-13T12:47:32.981Z,35.74
2019-05-13T12:52:33.009Z,35.16
2019-05-13T12:57:32.593Z,36.80
2019-05-13T13:02:32.568Z,36.44
2019-05-13T13:07:37.099Z,31.30
2019-05-13T13:12:36.879Z,32.56
2019-05-13T13:17:31.208Z,34.91
2019-05-13T13:22:32.137Z,35.66
2019-05-13T13:28:02.140Z,31.12
2019-05-13T13:32:33.092Z,36.50
2019-05-13T13:37:28.940Z,34.44
2019-05-13T13:42:32.166Z,31.22
2019-05-13T13:47:28.313Z,36.72
2019-05-13T13:52:27.210Z,35.87
2019-05-13T13:57:27.958Z,32.32
2019-05-13T14:02:26.930Z,35.45
2019-05-13T14:07:34.822Z,34.66
2019-05-13T14:12:25.911Z,33.31
2019-05-13T14:17:25.922Z,34.91
2019-05-13T14:22:25.065Z,32.82
2019-05-13T14:27:24.923Z,31.54
2019-05-13T14:32:24.044Z,30.43
2019-05-13T14:37:25.207Z,32.33
2019-05-13T14:42:24.988Z,37.48
2019-05-13T14:47:24.939Z,28.83
2019-05-13T14:52:24.140Z,33.92
2019-05-13T14:57:24.350Z,33.89
2019-05-13T15:02:25.116Z,34.52
2019-05-13T15:07:25.106Z,32.09
2019-05-13T15:12:24.056Z,37.04
2019-05-13T15:17:23.960Z,31.56
2019-05-13T15:22:22.962Z,32.33
2019-05-13T15:27:23.015Z,32.63
2019-05-13T15:37:22.037Z,30.31
2019-05-13T15:42:21.986Z,30.95
2019-05-13T15:47:24.032Z,33.86
2019-05-13T15:52:22.580Z,31.96
2019-05-13T15:57:21.415Z,30.69
2019-05-13T16:02:22.639Z,33.30
2019-05-13T16:07:20.950Z,34.47
2019-05-13T16:12:21.399Z,29.95
2019-05-13T16:17:30.649Z,30.32
2019-05-13T16:22:22.882Z,27.62
2019-05-13T16:27:18.940Z,25.85
2019-05-13T16:32:18.877Z,26.80
2019-05-13T16:42:17.975Z,26.18
2019-05-13T16:47:17.919Z,27.85
2019-05-13T16:52:16.877Z,24.01
2019-05-13T16:57:15.913Z,27.64
2019-05-13T17:02:16.873Z,26.27
2019-05-13T17:07:16.855Z,31.29
2019-05-13T17:12:16.937Z,31.21
2019-05-13T17:17:16.893Z,30.23
2019-05-13T17:22:16.008Z,30.81
2019-05-13T17:27:14.880Z,32.99
2019-05-13T17:32:15.106Z,33.11
2019-05-13T17:37:14.875Z,34.70
2019-05-13T17:42:14.015Z,34.43
2019-05-13T17:47:12.863Z,33.04
2019-05-13T17:52:13.846Z,35.78
2019-05-13T17:57:13.892Z,35.70
2019-05-13T18:02:12.870Z,35.04
2019-05-13T18:07:12.282Z,35.88
2019-05-13T18:12:11.537Z,34.98
2019-05-13T18:22:11.482Z,37.03
2019-05-13T18:27:12.240Z,39.64
2019-05-13T18:32:12.429Z,39.75
2019-05-13T18:37:11.831Z,40.41
2019-05-13T18:42:11.479Z,39.57
2019-05-13T18:47:11.988Z,36.13
2019-05-13T18:52:11.615Z,37.68
2019-05-13T18:57:12.199Z,41.82
2019-05-13T19:02:12.283Z,41.18
2019-05-13T19:07:09.903Z,39.49
2019-05-13T19:12:11.439Z,41.32
2019-05-13T19:17:08.928Z,40.80
2019-05-13T19:22:07.915Z,42.48
2019-05-13T19:27:07.886Z,42.02
2019-05-13T19:32:09.022Z,44.18
2019-05-13T19:37:08.860Z,45.51
2019-05-13T19:42:08.324Z,43.98
2019-05-13T19:47:07.010Z,43.84
2019-05-13T19:52:06.600Z,45.04
2019-05-13T19:57:05.802Z,45.65
2019-05-13T20:02:04.855Z,46.94
2019-05-13T20:07:04.876Z,44.46
2019-05-13T20:12:05.090Z,47.72
2019-05-13T20:17:04.845Z,47.61
2019-05-13T20:22:04.947Z,48.64
2019-05-13T20:27:04.006Z,48.05
2019-05-13T20:32:03.183Z,49.08
2019-05-13T20:37:02.865Z,48.30
2019-05-13T20:42:02.847Z,49.33
2019-05-13T20:47:01.935Z,49.71
2019-05-13T20:52:01.950Z,50.05
2019-05-13T20:57:01.984Z,50.20
2019-05-13T21:02:02.517Z,50.38
2019-05-13T21:07:02.294Z,48.55
2019-05-13T21:12:02.161Z,49.01
2019-05-13T21:17:01.584Z,49.20
2019-05-13T21:22:00.150Z,51.31
2019-05-13T21:27:01.789Z,49.53
2019-05-13T21:32:01.150Z,50.87
2019-05-13T21:37:02.079Z,51.44
2019-05-13T21:42:02.137Z,53.49
2019-05-13T21:47:01.991Z,52.70
2019-05-13T21:51:58.963Z,52.25
2019-05-13T21:56:58.848Z,52.54
2019-05-13T22:01:58.894Z,52.66
2019-05-13T22:07:01.477Z,53.07
2019-05-13T22:12:01.829Z,54.63
2019-05-13T22:17:01.345Z,53.52
2019-05-13T22:22:01.813Z,54.10
2019-05-13T22:27:01.999Z,55.65
2019-05-13T22:31:58.852Z,55.61
2019-05-13T22:36:58.931Z,55.51
2019-05-13T22:41:58.816Z,56.20
2019-05-13T22:46:58.865Z,56.81
2019-05-13T22:51:58.868Z,57.32
2019-05-13T22:56:58.879Z,57.05
2019-05-13T23:01:58.897Z,58.44
2019-05-13T23:06:58.071Z,58.44
2019-05-13T23:11:58.868Z,58.16
2019-05-13T23:16:58.914Z,59.29
2019-05-13T23:21:58.869Z,59.26
2019-05-13T23:26:58.163Z,60.61
2019-05-13T23:31:57.174Z,60.27
2019-05-13T23:36:56.248Z,60.05
2019-05-13T23:41:56.885Z,60.58
2019-05-13T23:46:56.026Z,60.22
2019-05-13T23:51:55.882Z,60.55
2019-05-13T23:56:55.851Z,61.94
